Time;durP1;ratioP1;P1;durP2;ratioP2;P2;SDS_P1;SDS_P2;PMS_P1;PMS_P2;Temp;Humidity;BMP_temperature;BMP_pressure;BME280_temperature;BME280_humidity;BME280_pressure;Samples;Min_cycle;Max_cycle;Signal;HPM_P1;HPM_P2
2023/10/24 00:00:26;;;;;;;12.23;11.13;;;;;;;8.94;100.00;98780.59;6077845;23;20172;-81
2023/10/24 00:02:57;;;;;;;12.53;11.33;;;;;;;9.01;100.00;98787.47;6078993;23;20164;-81
2023/10/24 00:05:27;;;;;;;12.47;11.33;;;;;;;9.04;100.00;98787.03;6100966;23;20286;-83
2023/10/24 00:08:04;;;;;;;12.97;11.77;;;;;;;9.10;100.00;98785.25;6102643;23;20250;-85
2023/10/24 00:10:31;;;;;;;12.40;11.20;;;;;;;9.15;100.00;98790.72;6125055;23;20168;-81
2023/10/24 00:13:00;;;;;;;12.03;10.90;;;;;;;9.20;100.00;98785.50;6124983;23;20578;-81
2023/10/24 00:15:29;;;;;;;12.37;11.27;;;;;;;9.26;100.00;98787.28;6100949;23;20179;-83
2023/10/24 00:18:00;;;;;;;12.27;11.17;;;;;;;9.32;100.00;98788.22;6125038;23;20690;-81
2023/10/24 00:20:34;;;;;;;12.50;11.20;;;;;;;9.37;100.00;98785.66;6126331;23;20298;-82
2023/10/24 00:23:03;;;;;;;12.47;11.37;;;;;;;9.42;100.00;98791.94;6077930;23;20176;-81
2023/10/24 00:25:40;;;;;;;13.13;11.93;;;;;;;9.46;100.00;98790.44;6125501;23;20209;-81
2023/10/24 00:28:08;;;;;;;12.63;11.43;;;;;;;9.49;100.00;98784.59;6102375;23;20223;-81
2023/10/24 00:30:44;;;;;;;13.27;11.97;;;;;;;9.52;100.00;98781.44;6101678;23;20258;-82
2023/10/24 00:33:14;;;;;;;13.07;11.80;;;;;;;9.56;100.00;98763.09;6101544;23;20167;-81
2023/10/24 00:35:46;;;;;;;13.60;12.30;;;;;;;9.60;100.00;98751.69;6125370;23;20168;-82
2023/10/24 00:38:15;;;;;;;13.73;12.43;;;;;;;9.62;100.00;98746.91;6101134;23;20183;-82
2023/10/24 00:40:42;;;;;;;13.93;12.63;;;;;;;9.66;100.00;98758.78;6100967;23;20171;-82
2023/10/24 00:43:22;;;;;;;14.07;12.80;;;;;;;9.72;100.00;98773.88;6102025;23;20251;-82
2023/10/24 00:45:51;;;;;;;14.90;13.43;;;;;;;9.73;100.00;98767.50;6126563;23;20163;-83
2023/10/24 00:48:19;;;;;;;14.03;12.63;;;;;;;9.77;100.00;98769.69;6125104;23;20172;-84
2023/10/24 00:50:51;;;;;;;14.43;13.13;;;;;;;9.82;100.00;98769.81;6100896;23;20176;-83
2023/10/24 00:53:22;;;;;;;15.90;14.50;;;;;;;9.86;100.00;98773.63;6125050;23;20167;-81
2023/10/24 00:55:51;;;;;;;16.20;14.50;;;;;;;9.91;100.00;98768.38;6100907;23;20182;-82
2023/10/24 00:58:20;;;;;;;16.63;15.13;;;;;;;9.89;100.00;98773.97;6126228;23;20181;-82
2023/10/24 01:00:55;;;;;;;16.20;14.40;;;;;;;9.94;100.00;98786.63;6101561;23;20176;-83
2023/10/24 01:03:26;;;;;;;16.23;14.60;;;;;;;9.97;100.00;98786.19;6101483;23;20902;-82
2023/10/24 01:05:57;;;;;;;17.20;15.10;;;;;;;10.01;100.00;98779.31;6078248;23;20203;-82
2023/10/24 01:08:29;;;;;;;18.23;15.97;;;;;;;10.02;100.00;98771.06;6101345;23;20168;-81
2023/10/24 01:10:58;;;;;;;19.87;16.33;;;;;;;10.06;100.00;98774.06;6126281;23;20614;-82
2023/10/24 01:13:29;;;;;;;21.93;17.87;;;;;;;10.09;100.00;98785.09;6101018;23;20167;-82
2023/10/24 01:16:04;;;;;;;26.00;18.77;;;;;;;10.11;100.00;98804.44;6124528;23;20167;-82
2023/10/24 01:18:33;;;;;;;26.43;18.93;;;;;;;10.14;100.00;98803.13;6077029;23;20206;-83
2023/10/24 01:21:01;;;;;;;27.33;19.27;;;;;;;10.16;100.00;98795.72;6077723;23;20203;-83
2023/10/24 01:23:36;;;;;;;28.17;20.00;;;;;;;10.18;100.00;98780.22;6102352;23;20172;-82
2023/10/24 01:26:06;;;;;;;28.70;20.03;;;;;;;10.21;100.00;98781.63;6125323;23;20140;-84
2023/10/24 01:28:38;;;;;;;29.27;20.07;;;;;;;10.24;100.00;98781.94;6125397;23;20156;-81
2023/10/24 01:31:06;;;;;;;34.07;20.43;;;;;;;10.27;100.00;98781.47;6101182;23;20202;-83
2023/10/24 01:33:39;;;;;;;31.47;20.63;;;;;;;10.29;100.00;98763.31;6125356;23;20176;-80
2023/10/24 01:36:09;;;;;;;33.87;22.23;;;;;;;10.31;100.00;98744.34;6101508;23;20226;-82
2023/10/24 01:38:42;;;;;;;38.37;22.40;;;;;;;10.32;100.00;98730.69;6101115;23;20183;-82
2023/10/24 01:41:14;;;;;;;41.27;22.93;;;;;;;10.33;100.00;98723.47;6124892;23;20167;-83
2023/10/24 01:43:50;;;;;;;33.03;22.87;;;;;;;10.33;100.00;98721.63;6078950;23;20172;-81
2023/10/24 01:46:20;;;;;;;35.97;24.37;;;;;;;10.35;100.00;98729.44;6077244;23;20238;-82
2023/10/24 01:48:54;;;;;;;36.93;23.27;;;;;;;10.37;100.00;98735.34;6102003;23;20180;-82
2023/10/24 01:51:25;;;;;;;32.33;23.47;;;;;;;10.37;100.00;98735.34;6124916;23;20159;-82
2023/10/24 01:53:55;;;;;;;29.90;23.80;;;;;;;10.38;100.00;98743.13;6124765;23;20637;-81
2023/10/24 01:56:23;;;;;;;37.63;25.67;;;;;;;10.39;100.00;98738.59;6100817;23;20172;-82
2023/10/24 01:58:55;;;;;;;37.90;26.17;;;;;;;10.41;100.00;98734.63;6100692;23;20191;-82
2023/10/24 02:01:29;;;;;;;36.13;26.37;;;;;;;10.43;100.00;98727.16;6101835;23;20610;-82
2023/10/24 02:04:00;;;;;;;36.73;24.20;;;;;;;10.44;100.00;98741.38;6124023;23;20275;-82
2023/10/24 02:06:32;;;;;;;33.70;24.50;;;;;;;10.44;100.00;98749.41;6100956;23;20164;-81
2023/10/24 02:08:59;;;;;;;32.17;23.83;;;;;;;10.45;100.00;98740.31;6100120;23;20180;-82
2023/10/24 02:11:34;;;;;;;32.00;22.73;;;;;;;10.47;100.00;98736.34;6076827;23;20987;-81
2023/10/24 02:14:06;;;;;;;33.13;23.07;;;;;;;10.48;100.00;98740.66;6100991;23;20178;-83
2023/10/24 02:16:35;;;;;;;34.90;22.93;;;;;;;10.51;100.00;98750.88;6124367;23;20168;-82
2023/10/24 02:19:04;;;;;;;32.33;23.50;;;;;;;10.52;100.00;98743.66;6100601;23;20229;-82
2023/10/24 02:21:34;;;;;;;36.43;23.80;;;;;;;10.51;100.00;98742.84;6077351;23;20275;-82
2023/10/24 02:24:05;;;;;;;31.63;23.00;;;;;;;10.53;100.00;98742.59;6077419;23;20167;-82
2023/10/24 02:26:34;;;;;;;38.63;23.17;;;;;;;10.53;100.00;98750.66;6100780;23;20176;-83
2023/10/24 02:29:12;;;;;;;36.00;24.00;;;;;;;10.55;100.00;98751.19;6099995;23;20176;-82
2023/10/24 02:31:41;;;;;;;35.83;24.77;;;;;;;10.54;100.00;98746.91;6101814;23;20156;-81
2023/10/24 02:34:10;;;;;;;39.57;24.87;;;;;;;10.55;100.00;98732.44;6076194;23;20653;-81
2023/10/24 02:36:39;;;;;;;34.60;23.70;;;;;;;10.52;100.00;98732.94;6100956;23;20149;-82
2023/10/24 02:39:11;;;;;;;40.47;25.17;;;;;;;10.52;100.00;98733.75;6124406;23;20198;-82
2023/10/24 02:41:42;;;;;;;54.20;25.27;;;;;;;10.52;100.00;98727.59;6100980;23;20235;-84
2023/10/24 02:44:10;;;;;;;44.87;24.80;;;;;;;10.49;100.00;98723.53;6101032;23;20163;-82
2023/10/24 02:46:41;;;;;;;47.77;26.50;;;;;;;10.46;100.00;98726.69;6125533;23;20171;-81
2023/10/24 02:49:12;;;;;;;67.87;27.50;;;;;;;10.43;100.00;98731.72;6100423;23;20160;-82
2023/10/24 02:51:44;;;;;;;48.07;26.37;;;;;;;10.42;100.00;98727.41;6124951;23;20160;-81
2023/10/24 02:54:14;;;;;;;52.50;26.97;;;;;;;10.41;100.00;98734.63;6125612;23;20192;-81
2023/10/24 02:56:48;;;;;;;50.73;27.30;;;;;;;10.42;100.00;98748.81;6077239;23;20251;-82
2023/10/24 02:59:22;;;;;;;45.33;26.60;;;;;;;10.39;100.00;98758.16;6100414;23;20186;-82
2023/10/24 03:01:57;;;;;;;47.60;26.53;;;;;;;10.41;100.00;98763.25;6100398;23;20171;-83
2023/10/24 03:04:35;;;;;;;43.37;25.97;;;;;;;10.43;100.00;98763.84;6102555;23;20294;-82
2023/10/24 03:07:03;;;;;;;43.30;26.60;;;;;;;10.45;100.00;98772.47;6077139;23;20179;-82
2023/10/24 03:09:33;;;;;;;38.43;25.07;;;;;;;10.47;100.00;98779.19;6101433;23;20171;-82
2023/10/24 03:12:05;;;;;;;40.83;25.67;;;;;;;10.50;100.00;98781.38;6079584;23;20174;-82
2023/10/24 03:14:37;;;;;;;39.90;26.60;;;;;;;10.51;100.00;98771.47;6081046;23;20200;-82
2023/10/24 03:17:06;;;;;;;42.30;26.93;;;;;;;10.54;100.00;98763.00;6102919;23;20180;-83
2023/10/24 03:19:42;;;;;;;42.40;27.23;;;;;;;10.57;100.00;98773.22;6080734;23;20262;-82
2023/10/24 03:22:10;;;;;;;44.37;26.70;;;;;;;10.59;100.00;98785.28;6103118;23;20224;-82
2023/10/24 03:24:49;;;;;;;40.17;26.17;;;;;;;10.59;100.00;98782.63;6102681;23;20250;-82
2023/10/24 03:27:17;;;;;;;38.30;26.00;;;;;;;10.61;100.00;98771.66;6103143;23;20160;-83
2023/10/24 03:29:46;;;;;;;42.47;26.10;;;;;;;10.62;100.00;98770.63;6078505;23;20172;-82
2023/10/24 03:32:16;;;;;;;38.80;25.73;;;;;;;10.63;100.00;98779.47;6103339;23;20172;-82
2023/10/24 03:34:47;;;;;;;39.30;25.77;;;;;;;10.64;100.00;98775.75;6079020;23;20175;-81
2023/10/24 03:37:18;;;;;;;37.07;25.63;;;;;;;10.62;100.00;98777.84;6103091;23;20626;-82
2023/10/24 03:39:48;;;;;;;35.57;25.13;;;;;;;10.65;100.00;98772.00;6102973;23;20199;-82
2023/10/24 03:42:16;;;;;;;33.73;24.60;;;;;;;10.68;100.00;98779.56;6126580;23;20247;-81
2023/10/24 03:44:48;;;;;;;33.53;23.73;;;;;;;10.69;100.00;98778.50;6126296;23;20164;-82
2023/10/24 03:47:19;;;;;;;34.03;23.57;;;;;;;10.69;100.00;98778.50;6102968;23;20169;-82
2023/10/24 03:49:49;;;;;;;32.30;23.30;;;;;;;10.66;100.00;98777.13;6102182;23;20168;-82
2023/10/24 03:52:17;;;;;;;31.50;22.33;;;;;;;10.70;100.00;98783.63;6078364;23;20171;-82
2023/10/24 03:54:49;;;;;;;30.20;21.90;;;;;;;10.72;100.00;98789.56;6101915;23;20223;-81
2023/10/24 03:57:18;;;;;;;30.73;21.80;;;;;;;10.72;100.00;98784.22;6102383;23;20164;-82
2023/10/24 03:59:51;;;;;;;24.63;20.57;;;;;;;10.74;100.00;98765.19;6101231;23;20196;-83
2023/10/24 04:02:20;;;;;;;28.50;21.83;;;;;;;10.76;100.00;98768.47;6127511;23;20153;-83
2023/10/24 04:04:50;;;;;;;31.07;22.70;;;;;;;10.78;100.00;98775.19;6101338;23;20199;-83
2023/10/24 04:07:22;;;;;;;28.37;21.43;;;;;;;10.78;100.00;98772.50;6078302;23;20176;-80
2023/10/24 04:09:57;;;;;;;29.43;22.03;;;;;;;10.77;100.00;98768.22;6125060;23;20167;-82
2023/10/24 04:12:28;;;;;;;28.67;21.33;;;;;;;10.78;100.00;98769.81;6102148;23;20260;-80
2023/10/24 04:14:56;;;;;;;31.33;22.60;;;;;;;10.81;100.00;98771.22;6101152;23;20612;-82
2023/10/24 04:17:25;;;;;;;29.20;22.40;;;;;;;10.80;100.00;98774.94;6101431;23;20159;-81
2023/10/24 04:19:53;;;;;;;32.37;21.47;;;;;;;10.80;100.00;98778.44;6100943;23;20275;-81
2023/10/24 04:22:21;;;;;;;34.70;26.80;;;;;;;10.81;100.00;98772.03;6100951;23;20422;-84
2023/10/24 04:24:56;;;;;;;29.53;22.73;;;;;;;10.80;100.00;98780.31;6100318;23;20160;-84
2023/10/24 04:27:32;;;;;;;31.57;22.27;;;;;;;10.79;100.00;98786.72;6101834;23;20148;-83
2023/10/24 04:30:02;;;;;;;27.23;20.93;;;;;;;10.78;100.00;98783.22;6126068;23;20243;-85
2023/10/24 04:32:34;;;;;;;27.00;20.60;;;;;;;10.80;100.00;98791.03;6102418;23;20165;-84
2023/10/24 04:35:08;;;;;;;27.67;20.63;;;;;;;10.82;100.00;98792.44;6099075;23;20207;-84
2023/10/24 04:37:40;;;;;;;26.83;20.07;;;;;;;10.83;100.00;98791.34;6126982;23;20162;-84
2023/10/24 04:40:16;;;;;;;29.30;21.50;;;;;;;10.82;100.00;98791.63;6079944;23;20577;-83
2023/10/24 04:42:49;;;;;;;25.37;20.20;;;;;;;10.84;100.00;98790.31;6102585;23;20658;-83
2023/10/24 04:45:24;;;;;;;25.27;19.43;;;;;;;10.85;100.00;98785.75;6125042;23;20178;-83
2023/10/24 04:47:54;;;;;;;26.00;20.23;;;;;;;10.86;100.00;98787.41;6125803;23;20240;-84
2023/10/24 04:50:26;;;;;;;27.50;20.93;;;;;;;10.84;100.00;98779.59;6126336;23;20148;-84
2023/10/24 04:52:56;;;;;;;28.37;20.93;;;;;;;10.77;100.00;98770.09;6101268;23;20163;-84
2023/10/24 04:55:25;;;;;;;25.37;19.63;;;;;;;10.79;100.00;98760.75;6124938;23;20242;-84
2023/10/24 04:57:54;;;;;;;26.07;19.90;;;;;;;10.81;100.00;98749.78;6125430;23;20174;-84
2023/10/24 05:00:28;;;;;;;25.50;19.47;;;;;;;10.85;100.00;98756.28;6125435;23;20219;-83
2023/10/24 05:03:02;;;;;;;27.73;19.90;;;;;;;10.82;100.00;98757.59;6101212;23;20262;-84
2023/10/24 05:05:38;;;;;;;27.20;20.47;;;;;;;10.81;100.00;98757.84;6100453;23;20236;-84
2023/10/24 05:08:11;;;;;;;25.70;20.43;;;;;;;10.82;100.00;98746.88;6125552;23;20144;-85
2023/10/24 05:10:40;;;;;;;28.07;20.30;;;;;;;10.85;100.00;98758.97;6124985;23;20164;-84
2023/10/24 05:13:12;;;;;;;29.60;21.57;;;;;;;10.87;100.00;98748.84;6101956;23;20584;-84
2023/10/24 05:15:48;;;;;;;26.60;19.87;;;;;;;10.88;100.00;98739.72;6124545;23;20214;-84
2023/10/24 05:18:18;;;;;;;31.87;22.60;;;;;;;10.89;100.00;98730.63;6125103;23;20211;-83
2023/10/24 05:20:47;;;;;;;29.63;22.57;;;;;;;10.91;100.00;98726.66;6100765;23;20191;-84
2023/10/24 05:23:15;;;;;;;27.67;20.57;;;;;;;10.91;100.00;98737.38;6101205;23;20200;-83
2023/10/24 05:25:45;;;;;;;26.97;20.63;;;;;;;10.89;100.00;98738.66;6124701;23;20227;-84
2023/10/24 05:28:16;;;;;;;29.47;21.60;;;;;;;10.91;100.00;98745.44;6124808;23;20174;-84
2023/10/24 05:30:44;;;;;;;20.97;16.60;;;;;;;10.96;100.00;98750.84;6125871;23;20205;-85
2023/10/24 05:33:13;;;;;;;27.67;21.93;;;;;;;10.92;100.00;98736.31;6125906;23;20172;-85
2023/10/24 05:35:47;;;;;;;27.47;20.63;;;;;;;10.91;100.00;98731.22;6125009;23;20273;-83
2023/10/24 05:38:18;;;;;;;24.60;19.07;;;;;;;10.93;100.00;98756.69;6101407;23;20172;-84
2023/10/24 05:40:46;;;;;;;25.10;20.10;;;;;;;10.93;100.00;98770.09;6100645;23;20207;-83
2023/10/24 05:43:14;;;;;;;29.13;24.00;;;;;;;10.96;100.00;98764.25;6100729;23;20172;-84
2023/10/24 05:45:44;;;;;;;26.27;21.40;;;;;;;10.97;100.00;98779.28;6100541;23;20215;-84
2023/10/24 05:48:18;;;;;;;27.10;23.20;;;;;;;11.02;100.00;98779.34;6124959;23;20172;-86
2023/10/24 05:50:47;;;;;;;28.83;22.07;;;;;;;11.04;100.00;98766.53;6124425;23;20181;-84
2023/10/24 05:53:17;;;;;;;25.93;21.03;;;;;;;11.07;100.00;98778.63;6076643;23;20171;-84
2023/10/24 05:55:52;;;;;;;25.77;20.70;;;;;;;11.07;100.00;98759.88;6101797;23;20171;-85
2023/10/24 05:58:25;;;;;;;26.50;20.13;;;;;;;11.11;100.00;98762.88;6077014;23;20198;-86
2023/10/24 06:00:55;;;;;;;25.77;20.67;;;;;;;11.13;100.00;98753.53;6100994;23;20246;-85
2023/10/24 06:03:28;;;;;;;24.33;18.90;;;;;;;11.17;100.00;98759.22;6101268;23;20223;-85
2023/10/24 06:05:58;;;;;;;22.10;18.67;;;;;;;11.14;100.00;98752.50;6125331;23;20229;-85
2023/10/24 06:08:36;;;;;;;20.10;16.90;;;;;;;11.17;100.00;98743.94;6126025;23;20615;-84
2023/10/24 06:11:09;;;;;;;18.10;15.13;;;;;;;11.09;100.00;98738.19;6124726;23;20159;-84
2023/10/24 06:13:37;;;;;;;17.57;14.77;;;;;;;11.13;100.00;98747.38;6126453;23;20176;-84
2023/10/24 06:16:13;;;;;;;14.60;13.10;;;;;;;11.08;100.00;98740.06;6125088;23;20155;-85
2023/10/24 06:18:42;;;;;;;15.23;13.63;;;;;;;11.10;100.00;98731.78;6100959;23;20182;-85
2023/10/24 06:21:11;;;;;;;15.87;14.17;;;;;;;11.09;100.00;98720.25;6124558;23;20178;-84
2023/10/24 06:23:40;;;;;;;15.33;13.53;;;;;;;11.00;100.00;98716.34;6101105;23;20166;-85
2023/10/24 06:26:17;;;;;;;13.97;12.57;;;;;;;11.03;100.00;98705.13;6124720;23;20200;-84
2023/10/24 06:28:44;;;;;;;15.23;13.63;;;;;;;11.00;100.00;98709.13;6124815;23;20164;-84
2023/10/24 06:31:14;;;;;;;17.43;15.03;;;;;;;10.94;100.00;98715.44;6078176;23;20164;-83
2023/10/24 06:33:50;;;;;;;18.23;15.00;;;;;;;11.01;100.00;98726.03;6079191;23;20174;-85
2023/10/24 06:36:19;;;;;;;18.00;15.20;;;;;;;11.09;100.00;98739.00;6124801;23;20612;-85
2023/10/24 06:38:47;;;;;;;18.27;14.80;;;;;;;11.15;100.00;98762.13;6126118;23;20192;-85
2023/10/24 06:41:19;;;;;;;16.30;14.50;;;;;;;11.20;100.00;98767.56;6101436;23;20483;-84
2023/10/24 06:43:50;;;;;;;16.00;14.30;;;;;;;11.25;100.00;98767.66;6101235;23;20172;-83
2023/10/24 06:46:24;;;;;;;14.63;13.13;;;;;;;11.23;100.00;98763.63;6127142;23;20168;-83
2023/10/24 06:48:55;;;;;;;14.00;12.60;;;;;;;11.20;100.00;98759.53;6104229;23;20918;-83
2023/10/24 06:51:24;;;;;;;13.73;12.33;;;;;;;11.26;100.00;98736.31;6126941;23;20172;-83
2023/10/24 06:53:52;;;;;;;13.53;12.23;;;;;;;11.32;100.00;98735.31;6103730;23;20175;-83
2023/10/24 06:56:28;;;;;;;13.90;12.50;;;;;;;11.37;100.00;98728.19;6104659;23;20172;-85
2023/10/24 06:59:03;;;;;;;13.83;12.40;;;;;;;11.39;100.00;98738.63;6082215;23;20202;-83
2023/10/24 07:01:35;;;;;;;14.83;13.23;;;;;;;11.45;100.00;98729.63;6128459;23;20199;-84
2023/10/24 07:04:05;;;;;;;13.87;12.43;;;;;;;11.51;100.00;98728.63;6127325;23;20258;-83
2023/10/24 07:06:37;;;;;;;13.97;12.47;;;;;;;11.48;100.00;98729.94;6127136;23;20169;-84
2023/10/24 07:09:08;;;;;;;14.37;12.33;;;;;;;11.57;100.00;98735.66;6127548;23;20162;-83
2023/10/24 07:11:36;;;;;;;14.87;13.37;;;;;;;11.61;100.00;98744.88;6127545;23;20176;-84
2023/10/24 07:14:04;;;;;;;15.00;13.40;;;;;;;11.65;100.00;98742.50;6079920;23;20247;-82
2023/10/24 07:16:39;;;;;;;16.60;14.57;;;;;;;11.67;100.00;98740.38;6103885;23;20168;-83
2023/10/24 07:19:09;;;;;;;16.07;14.47;;;;;;;11.60;100.00;98731.69;6104558;23;20845;-83
2023/10/24 07:21:41;;;;;;;16.73;14.30;;;;;;;11.62;100.00;98721.53;6104185;23;20163;-84
2023/10/24 07:24:12;;;;;;;14.77;13.27;;;;;;;11.54;100.00;98722.75;6128851;23;20630;-85
2023/10/24 07:26:40;;;;;;;15.77;14.17;;;;;;;11.53;100.00;98723.81;6103574;23;20608;-87
2023/10/24 07:29:15;;;;;;;15.53;13.37;;;;;;;11.56;100.00;98726.03;6080395;23;20202;-83
2023/10/24 07:31:44;;;;;;;15.30;13.47;;;;;;;11.60;100.00;98715.59;6127693;23;20165;-84
2023/10/24 07:34:14;;;;;;;16.23;13.27;;;;;;;11.62;100.00;98711.59;6103527;23;20256;-84
2023/10/24 07:36:42;;;;;;;15.27;13.67;;;;;;;11.57;100.00;98716.09;6079950;23;20172;-83
2023/10/24 07:39:10;;;;;;;17.07;14.63;;;;;;;11.44;100.00;98710.03;6103747;23;20275;-84
2023/10/24 07:41:38;;;;;;;15.90;13.47;;;;;;;11.49;100.00;98707.41;6103568;23;20168;-83
2023/10/24 07:44:14;;;;;;;15.33;13.67;;;;;;;11.53;100.00;98707.72;6127335;23;20294;-84
2023/10/24 07:46:44;;;;;;;15.37;13.80;;;;;;;11.61;100.00;98704.63;6104328;23;20167;-83
2023/10/24 07:49:14;;;;;;;16.70;14.63;;;;;;;11.61;100.00;98688.53;6127757;23;20177;-83
2023/10/24 07:51:42;;;;;;;17.90;13.83;;;;;;;11.66;100.00;98693.16;6127795;23;20176;-85
2023/10/24 07:54:13;;;;;;;15.47;13.87;;;;;;;11.73;100.00;98701.84;6128876;23;20192;-84
2023/10/24 07:56:43;;;;;;;14.63;13.13;;;;;;;11.70;100.00;98699.66;6101952;23;20223;-83
2023/10/24 07:59:14;;;;;;;15.67;13.17;;;;;;;11.76;100.00;98688.72;6102100;23;20187;-85
2023/10/24 08:01:47;;;;;;;13.87;12.47;;;;;;;11.65;100.00;98678.94;6127342;23;20170;-84
2023/10/24 08:04:14;;;;;;;14.10;12.73;;;;;;;11.74;100.00;98674.78;6101347;23;20200;-86
2023/10/24 08:06:43;;;;;;;13.43;12.03;;;;;;;11.81;100.00;98666.50;6126623;23;20173;-83
2023/10/24 08:09:13;;;;;;;14.17;12.13;;;;;;;11.78;100.00;98667.03;6101905;23;20207;-84
2023/10/24 08:11:44;;;;;;;13.20;11.90;;;;;;;11.82;100.00;98663.59;6103299;23;20161;-84
2023/10/24 08:14:14;;;;;;;13.73;12.40;;;;;;;11.88;100.00;98665.28;6101755;23;20216;-85
2023/10/24 08:16:42;;;;;;;13.60;12.10;;;;;;;12.01;100.00;98676.69;6102165;23;20208;-83
2023/10/24 08:19:13;;;;;;;13.30;11.90;;;;;;;12.05;100.00;98669.75;6125765;23;20186;-83
2023/10/24 08:21:41;;;;;;;14.23;12.73;;;;;;;12.08;100.00;98669.25;6078454;23;20259;-83
2023/10/24 08:24:16;;;;;;;15.37;13.53;;;;;;;12.11;100.00;98666.88;6102241;23;20273;-84
2023/10/24 08:26:45;;;;;;;13.23;11.93;;;;;;;12.11;100.00;98652.63;6102618;23;20249;-83
2023/10/24 08:29:33;;;;;;;13.27;11.97;;;;;;;12.12;100.00;98649.69;6105628;23;20172;-83
2023/10/24 08:32:03;;;;;;;13.43;12.03;;;;;;;12.12;100.00;98651.56;6101533;23;20165;-84
2023/10/24 08:34:43;;;;;;;13.60;12.23;;;;;;;12.12;100.00;98641.66;6126444;23;20162;-84
2023/10/24 08:37:13;;;;;;;14.07;12.67;;;;;;;12.14;100.00;98633.31;6125859;23;20223;-83
2023/10/24 08:39:44;;;;;;;16.30;13.93;;;;;;;12.16;100.00;98642.75;6101280;23;20188;-84
2023/10/24 08:42:13;;;;;;;14.53;13.03;;;;;;;12.24;100.00;98644.16;6101502;23;20256;-84
2023/10/24 08:44:42;;;;;;;15.73;14.03;;;;;;;12.30;100.00;98654.72;6125074;23;20244;-83
2023/10/24 08:47:10;;;;;;;15.77;14.17;;;;;;;12.31;100.00;98655.53;6101153;23;20172;-83
2023/10/24 08:49:38;;;;;;;15.60;13.97;;;;;;;12.34;100.00;98628.16;6099043;23;20185;-84
2023/10/24 08:52:06;;;;;;;15.23;13.70;;;;;;;12.37;100.00;98651.81;6124658;23;20173;-84
2023/10/24 08:54:59;;;;;;;16.90;13.87;;;;;;;12.43;100.00;98641.91;6104851;23;20613;-84
2023/10/24 08:57:34;;;;;;;16.70;14.33;;;;;;;12.42;100.00;98630.38;6124966;23;20243;-86
2023/10/24 09:00:02;;;;;;;17.33;15.53;;;;;;;12.46;100.00;98630.69;6100466;23;20173;-83
2023/10/24 09:02:35;;;;;;;17.90;15.83;;;;;;;12.47;100.00;98621.53;6126865;23;20173;-83
2023/10/24 09:05:06;;;;;;;18.57;16.03;;;;;;;12.49;100.00;98604.13;6099585;23;20224;-83
2023/10/24 09:07:42;;;;;;;18.03;16.13;;;;;;;12.56;100.00;98606.56;6078250;23;20159;-84
2023/10/24 09:10:10;;;;;;;18.40;16.27;;;;;;;12.60;100.00;98613.03;6102043;23;20173;-83
2023/10/24 09:12:43;;;;;;;18.03;16.13;;;;;;;12.63;100.00;98607.19;6126825;23;20151;-85
2023/10/24 09:15:11;;;;;;;16.37;14.63;;;;;;;12.69;100.00;98606.94;6100667;23;20225;-84
2023/10/24 09:17:40;;;;;;;18.07;15.97;;;;;;;12.80;100.00;98600.56;6125582;23;20169;-83
2023/10/24 09:20:09;;;;;;;17.83;15.93;;;;;;;12.99;100.00;98594.78;6100894;23;20950;-86
2023/10/24 09:22:40;;;;;;;18.13;15.03;;;;;;;13.15;100.00;98589.28;6077850;23;20182;-84
2023/10/24 09:25:13;;;;;;;17.63;15.37;;;;;;;13.30;100.00;98574.28;6076591;23;20182;-84
2023/10/24 09:27:42;;;;;;;15.60;13.97;;;;;;;13.44;100.00;98564.63;6125497;23;20235;-84
2023/10/24 09:30:12;;;;;;;15.33;13.83;;;;;;;13.70;100.00;98563.66;6124223;23;20171;-84
2023/10/24 09:32:44;;;;;;;15.57;13.97;;;;;;;13.96;100.00;98565.31;6101280;23;20644;-83
2023/10/24 09:35:15;;;;;;;15.00;13.40;;;;;;;14.08;100.00;98565.88;6076402;23;20183;-84
2023/10/24 09:37:50;;;;;;;14.90;12.80;;;;;;;14.16;100.00;98566.41;6124767;23;20700;-83
2023/10/24 09:40:20;;;;;;;13.87;12.47;;;;;;;14.38;100.00;98559.72;6124181;23;20193;-83
2023/10/24 09:42:51;;;;;;;15.60;14.00;;;;;;;14.60;100.00;98570.22;6078332;23;20651;-83
2023/10/24 09:45:24;;;;;;;13.93;12.63;;;;;;;14.77;100.00;98581.53;6100427;23;20198;-83
2023/10/24 09:47:55;;;;;;;14.27;12.80;;;;;;;14.89;100.00;98586.63;6078728;23;20168;-83
2023/10/24 09:50:27;;;;;;;15.47;14.03;;;;;;;14.88;100.00;98603.91;6124438;23;20172;-82
2023/10/24 09:52:59;;;;;;;14.83;13.43;;;;;;;14.84;100.00;98606.31;6077091;23;20254;-83
2023/10/24 09:55:29;;;;;;;13.23;11.93;;;;;;;14.94;100.00;98609.00;6077202;23;20164;-83
2023/10/24 09:57:59;;;;;;;12.00;10.87;;;;;;;15.01;100.00;98606.03;6100694;23;20175;-83
2023/10/24 10:00:32;;;;;;;11.73;10.60;;;;;;;14.80;100.00;98609.81;6100193;23;20195;-83
2023/10/24 10:03:02;;;;;;;12.23;11.00;;;;;;;14.52;100.00;98592.31;6100776;23;20247;-83
2023/10/24 10:05:33;;;;;;;12.70;11.47;;;;;;;14.35;100.00;98597.13;6099981;23;20275;-83
2023/10/24 10:08:20;;;;;;;;;;;;;;;;;;;;;
2023/10/24 10:10:53;;;;;;;12.97;11.67;;;;;;;14.56;100.00;98571.81;6103270;23;20174;-84
2023/10/24 10:13:25;;;;;;;13.00;11.70;;;;;;;14.61;100.00;98573.72;6125882;23;20288;-83
2023/10/24 10:16:19;;;;;;;13.43;12.13;;;;;;;14.51;100.00;98575.34;6100719;23;20160;-83
2023/10/24 10:18:51;;;;;;;12.80;11.50;;;;;;;14.43;100.00;98581.28;6124014;23;20172;-83
2023/10/24 10:21:27;;;;;;;13.63;12.23;;;;;;;14.36;100.00;98574.53;6099699;23;20191;-84
2023/10/24 10:24:08;;;;;;;13.37;11.97;;;;;;;14.32;100.00;98568.06;6100740;23;20174;-83
2023/10/24 10:26:48;;;;;;;12.87;11.43;;;;;;;14.26;100.00;98555.66;6100723;23;20261;-83
2023/10/24 10:29:29;;;;;;;13.27;11.97;;;;;;;14.25;100.00;98540.56;6100171;23;20218;-83
2023/10/24 10:32:12;;;;;;;13.17;11.73;;;;;;;14.15;100.00;98527.06;6099935;23;20196;-82
2023/10/24 10:35:06;;;;;;;12.33;11.00;;;;;;;14.10;100.00;98519.81;6124998;23;20164;-83
2023/10/24 10:37:40;;;;;;;12.37;11.00;;;;;;;14.09;100.00;98510.13;6125244;23;20160;-84
2023/10/24 10:40:22;;;;;;;6.67;5.30;;;;;;;14.06;100.00;98524.94;6123706;23;20263;-84
2023/10/24 10:42:55;;;;;;;4.60;4.20;;;;;;;14.07;100.00;98542.72;6124196;23;20164;-85
2023/10/24 10:45:31;;;;;;;5.33;4.80;;;;;;;14.10;100.00;98536.78;6100170;23;20179;-83
2023/10/24 10:48:04;;;;;;;11.13;8.93;;;;;;;14.16;100.00;98534.09;6124038;23;20163;-83
2023/10/24 10:50:33;;;;;;;10.47;8.90;;;;;;;14.17;100.00;98536.53;6099849;23;20188;-84
2023/10/24 10:53:20;;;;;;;10.30;8.27;;;;;;;14.23;100.00;98548.91;6124109;23;20172;-82
2023/10/24 10:56:19;;;;;;;7.93;5.77;;;;;;;14.19;100.00;98561.28;6100051;23;20171;-83
2023/10/24 10:59:08;;;;;;;5.43;3.73;;;;;;;14.28;100.00;98553.47;6125453;23;20163;-82
2023/10/24 11:01:51;;;;;;;9.40;8.50;;;;;;;14.33;100.00;98556.97;6123730;23;20183;-85
2023/10/24 11:04:24;;;;;;;13.27;11.87;;;;;;;14.31;100.00;98539.47;6123761;23;20222;-84
2023/10/24 11:06:53;;;;;;;11.10;9.83;;;;;;;14.34;100.00;98528.97;6124778;23;20167;-82
2023/10/24 11:09:33;;;;;;;5.03;3.83;;;;;;;14.41;100.00;98504.47;6076463;23;20168;-83
2023/10/24 11:12:26;;;;;;;3.90;3.50;;;;;;;14.51;100.00;98502.56;6097360;23;20502;-83
2023/10/24 11:15:14;;;;;;;5.33;3.10;;;;;;;14.66;100.00;98500.91;6124239;23;20159;-83
2023/10/24 11:17:47;;;;;;;5.50;3.30;;;;;;;14.69;100.00;98506.59;6125898;23;20159;-83
2023/10/24 11:20:20;;;;;;;3.00;2.80;;;;;;;14.61;100.00;98506.31;6100762;23;20218;-83
2023/10/24 11:22:53;;;;;;;4.50;3.00;;;;;;;14.52;100.00;98492.59;6124097;23;20634;-82
2023/10/24 11:25:27;;;;;;;5.33;2.87;;;;;;;14.42;100.00;98488.03;6123330;23;20172;-82
2023/10/24 11:28:06;;;;;;;3.90;3.10;;;;;;;14.35;100.00;98478.59;6125281;23;20242;-82
2023/10/24 11:30:34;;;;;;;4.83;3.07;;;;;;;14.40;100.00;98478.63;6123654;23;20182;-82
2023/10/24 11:33:04;;;;;;;4.57;3.00;;;;;;;14.46;100.00;98493.72;6126392;23;20228;-82